Time;durP1;ratioP1;P1;durP2;ratioP2;P2;SDS_P1;SDS_P2;PMS_P1;PMS_P2;Temp;Humidity;BMP_temperature;BMP_pressure;BME280_temperature;BME280_humidity;BME280_pressure;Samples;Min_cycle;Max_cycle;Signal;HPM_P1;HPM_P2
2022/01/29 00:10:31;;;;;;;3.90;2.37;;;;;;;1.22;100.00;101094.19;15322253;19;20457;-52
2022/01/29 00:15:35;;;;;;;5.83;3.83;;;;;;;1.13;100.00;101101.34;15321178;19;21022;-55
2022/01/29 00:20:40;;;;;;;6.20;4.00;;;;;;;1.08;100.00;101112.81;15344257;19;20163;-54
2022/01/29 00:25:44;;;;;;;7.00;3.97;;;;;;;1.00;100.00;101098.88;15344264;19;20148;-51
2022/01/29 00:30:49;;;;;;;6.17;4.07;;;;;;;1.02;100.00;101110.25;15341693;19;20154;-56
2022/01/29 00:40:50;;;;;;;9.30;4.57;;;;;;;1.01;100.00;101110.25;15331058;19;20484;-56
2022/01/29 00:45:54;;;;;;;7.00;3.90;;;;;;;0.97;100.00;101109.41;15346232;19;20151;-52
2022/01/29 00:51:00;;;;;;;7.00;4.63;;;;;;;1.00;100.00;101109.41;15346303;19;20144;-53
2022/01/29 01:00:59;;;;;;;5.80;4.20;;;;;;;0.96;100.00;101101.59;15173748;19;2883728;-53
2022/01/29 01:06:03;;;;;;;6.23;4.07;;;;;;;0.92;100.00;101099.88;15346345;19;20159;-56
2022/01/29 01:11:08;;;;;;;6.87;4.60;;;;;;;0.92;100.00;101095.50;15344448;19;20156;-54
2022/01/29 01:16:12;;;;;;;7.20;4.47;;;;;;;0.92;100.00;101081.47;15335791;19;20133;-54
2022/01/29 01:31:12;;;;;;;7.70;4.17;;;;;;;0.78;100.00;101067.66;15340782;19;20462;-50
2022/01/29 01:36:20;;;;;;;7.40;4.53;;;;;;;0.76;100.00;101067.66;15346621;19;20148;-53
2022/01/29 01:46:20;;;;;;;6.60;4.50;;;;;;;0.65;100.00;101059.03;15176832;19;2872723;-56
2022/01/29 01:51:25;;;;;;;5.87;4.40;;;;;;;0.59;100.00;101059.13;15343567;19;20216;-54
2022/01/29 01:56:30;;;;;;;6.83;4.93;;;;;;;0.53;100.00;101059.19;15341752;19;20182;-53
2022/01/29 02:01:34;;;;;;;7.43;4.47;;;;;;;0.55;100.00;101044.28;15330215;19;20983;-53
2022/01/29 02:11:38;;;;;;;7.60;4.67;;;;;;;0.46;100.00;101042.66;15191291;19;2876373;-55
2022/01/29 02:16:42;;;;;;;6.70;4.90;;;;;;;0.43;100.00;101047.94;15345702;19;20152;-54
2022/01/29 02:36:42;;;;;;;8.27;5.07;;;;;;;0.32;100.00;101040.16;15340434;19;20449;-54
2022/01/29 02:41:46;;;;;;;7.50;4.50;;;;;;;0.36;100.00;101047.09;15345752;19;20136;-54
2022/01/29 02:56:43;;;;;;;6.00;3.23;;;;;;;0.38;100.00;101043.59;15339321;19;20517;-51
2022/01/29 03:01:48;;;;;;;6.23;3.80;;;;;;;0.36;100.00;101036.59;15332459;19;20636;-55
2022/01/29 03:06:53;;;;;;;7.90;3.70;;;;;;;0.41;100.00;101048.81;15356809;19;20168;-56
2022/01/29 03:11:59;;;;;;;7.90;3.90;;;;;;;0.38;100.00;101054.09;15356679;19;20157;-55
2022/01/29 03:22:01;;;;;;;7.67;3.83;;;;;;;0.35;100.00;101040.16;15351645;19;20448;-54
2022/01/29 03:37:01;;;;;;;8.73;3.97;;;;;;;0.26;100.00;101027.09;15339140;19;20468;-53
2022/01/29 03:42:08;;;;;;;6.60;3.27;;;;;;;0.21;100.00;101034.16;15305284;19;20663;-55
2022/01/29 03:47:13;;;;;;;7.67;3.30;;;;;;;0.21;100.00;101036.78;15330096;19;20150;-49
2022/01/29 03:52:18;;;;;;;5.23;3.10;;;;;;;0.19;100.00;101038.56;15342511;19;20156;-50
2022/01/29 03:57:22;;;;;;;7.67;3.67;;;;;;;0.20;100.00;101037.69;15342250;19;20168;-56
2022/01/29 04:02:27;;;;;;;8.03;4.00;;;;;;;0.15;100.00;101034.22;15312742;19;20164;-53
2022/01/29 04:27:33;;;;;;;8.00;3.70;;;;;;;-0.01;100.00;101027.41;15301304;19;20450;-50
2022/01/29 04:37:35;;;;;;;7.43;3.60;;;;;;;0.02;100.00;101024.72;15331688;19;20515;-58
2022/01/29 04:42:40;;;;;;;5.83;3.63;;;;;;;0.03;100.00;101018.59;15341870;19;20164;-58
2022/01/29 04:52:38;;;;;;;9.67;3.90;;;;;;;0.04;100.00;101015.09;14971322;19;2893371;-55
2022/01/29 05:02:41;;;;;;;7.23;3.83;;;;;;;0.09;100.00;101000.19;15341077;19;20504;-55
2022/01/29 05:07:46;;;;;;;8.13;4.60;;;;;;;0.12;100.00;101002.75;15335606;19;20209;-55
2022/01/29 05:32:42;;;;;;;8.50;5.83;;;;;;;0.11;100.00;100971.31;15313750;19;20454;-54
2022/01/29 05:42:41;;;;;;;8.00;4.80;;;;;;;0.09;100.00;100968.69;15191509;19;2876158;-54
2022/01/29 05:47:46;;;;;;;9.47;5.07;;;;;;;0.08;100.00;100966.09;15343922;19;20157;-51
2022/01/29 05:52:50;;;;;;;8.87;5.10;;;;;;;0.02;100.00;100960.88;15333166;19;20133;-54
2022/01/29 06:03:07;;;;;;;9.77;4.47;;;;;;;0.03;100.00;100947.75;15335280;19;20513;-53
2022/01/29 06:08:11;;;;;;;7.97;4.97;;;;;;;-0.02;100.00;100960.06;15344596;19;20140;-51
2022/01/29 06:13:17;;;;;;;8.43;4.93;;;;;;;-0.02;100.00;100949.59;15343856;19;20145;-56
2022/01/29 06:18:23;;;;;;;11.33;6.47;;;;;;;-0.10;100.00;100959.28;15312895;19;20268;-53
2022/01/29 06:23:32;;;;;;;9.90;6.53;;;;;;;0.64;100.00;100952.25;15328140;19;20152;-53
2022/01/29 06:28:37;;;;;;;10.73;6.17;;;;;;;0.62;100.00;100952.25;15343598;19;20664;-52
2022/01/29 06:33:41;;;;;;;11.30;6.27;;;;;;;0.49;100.00;100953.31;15340751;19;20140;-57
2022/01/29 06:38:46;;;;;;;9.17;6.00;;;;;;;0.39;100.00;100953.47;15324078;19;20170;-55
2022/01/29 06:43:50;;;;;;;11.67;6.53;;;;;;;0.43;100.00;100957.78;15317656;19;20163;-53
2022/01/29 06:53:49;;;;;;;12.87;6.53;;;;;;;0.41;100.00;100962.19;15191730;19;2877563;-53
2022/01/29 06:58:54;;;;;;;10.90;6.03;;;;;;;0.50;100.00;100943.69;15342811;19;20144;-55
2022/01/29 07:04:15;;;;;;;8.53;6.00;;;;;;;0.55;100.00;100947.13;15313071;19;20877;-53
2022/01/29 07:09:20;;;;;;;10.63;5.70;;;;;;;0.64;100.00;100936.50;15336146;19;21131;-56
2022/01/29 07:14:24;;;;;;;10.23;5.60;;;;;;;0.71;100.00;100933.78;15346091;19;20179;-52
2022/01/29 07:24:26;;;;;;;8.70;5.07;;;;;;;0.94;100.00;100911.53;15313500;19;20467;-56
2022/01/29 07:29:31;;;;;;;11.67;5.87;;;;;;;1.02;100.00;100899.16;15326482;19;20197;-53
2022/01/29 07:34:36;;;;;;;11.57;5.80;;;;;;;1.14;100.00;100893.69;15344274;19;20151;-55
2022/01/29 07:54:31;;;;;;;9.43;5.00;;;;;;;1.45;100.00;100870.34;15324840;19;20505;-55
2022/01/29 08:19:21;;;;;;;13.87;6.77;;;;;;;2.12;100.00;100832.19;15186398;19;2874088;-57
2022/01/29 08:34:18;;;;;;;13.07;6.77;;;;;;;2.63;100.00;100809.06;15150434;19;2874633;-54
2022/01/29 08:39:24;;;;;;;13.57;6.63;;;;;;;2.92;100.00;100799.56;15298870;19;20197;-53
2022/01/29 08:44:31;;;;;;;12.00;5.70;;;;;;;3.07;100.00;100802.69;15339118;19;20188;-51
2022/01/29 08:59:27;;;;;;;14.77;6.20;;;;;;;3.65;100.00;100795.81;15319283;19;20504;-51
2022/01/29 09:04:32;;;;;;;17.43;7.30;;;;;;;3.70;100.00;100807.13;15340915;19;20681;-51
2022/01/29 09:09:39;;;;;;;15.93;7.03;;;;;;;3.67;100.00;100801.06;15340699;19;20165;-51
2022/01/29 09:14:44;;;;;;;12.27;6.60;;;;;;;3.93;100.00;100804.69;15325665;19;20175;-50
2022/01/29 09:19:49;;;;;;;16.57;6.97;;;;;;;3.99;100.00;100788.66;15315458;19;20174;-50
2022/01/29 09:24:53;;;;;;;13.63;6.83;;;;;;;4.12;100.00;100794.44;15341302;19;20154;-50
2022/01/29 09:29:58;;;;;;;12.90;5.90;;;;;;;4.29;100.00;100776.31;15313564;19;20157;-50
2022/01/29 09:35:03;;;;;;;13.67;6.23;;;;;;;4.65;100.00;100768.97;15307196;19;20151;-51
2022/01/29 09:40:08;;;;;;;15.23;6.87;;;;;;;4.90;100.00;100745.22;15277048;19;20152;-52
2022/01/29 09:45:15;;;;;;;14.20;6.93;;;;;;;5.10;100.00;100731.31;15310294;19;20164;-52
2022/01/29 09:50:20;;;;;;;12.07;6.80;;;;;;;5.19;100.00;100723.06;15336242;19;20153;-51
2022/01/29 09:55:26;;;;;;;20.90;8.90;;;;;;;5.33;100.00;100699.59;15338017;19;20594;-49
2022/01/29 10:00:31;;;;;;;14.03;8.27;;;;;;;5.82;100.00;100700.38;15317035;19;20192;-49
2022/01/29 10:05:37;;;;;;;16.73;8.37;;;;;;;6.30;100.00;100683.50;15317650;19;20286;-49
2022/01/29 10:10:48;;;;;;;16.77;8.37;;;;;;;6.78;100.00;100692.06;15281283;19;20160;-51
2022/01/29 10:15:53;;;;;;;16.10;8.37;;;;;;;6.79;100.00;100672.56;15273714;19;20157;-50
2022/01/29 10:21:09;;;;;;;15.97;8.03;;;;;;;7.12;100.00;100658.78;15267348;19;20145;-50
2022/01/29 10:26:30;;;;;;;14.10;7.27;;;;;;;7.20;100.00;100625.63;15247139;19;20147;-50
2022/01/29 10:31:45;;;;;;;16.07;8.27;;;;;;;7.16;100.00;100623.19;15270363;19;20165;-49
2022/01/29 10:37:16;;;;;;;12.03;7.27;;;;;;;7.18;100.00;100610.72;15275428;19;20275;-51
2022/01/29 10:42:38;;;;;;;18.03;7.97;;;;;;;7.18;100.00;100595.66;15241783;19;20862;-52
2022/01/29 10:47:57;;;;;;;17.20;8.20;;;;;;;7.17;100.00;100569.16;15214152;19;20149;-52
2022/01/29 10:53:29;;;;;;;22.57;8.07;;;;;;;7.45;100.00;100572.28;15229246;19;20148;-51
2022/01/29 10:58:45;;;;;;;16.47;7.93;;;;;;;7.61;100.00;100561.75;15230916;19;20193;-49
2022/01/29 11:03:53;;;;;;;17.33;7.87;;;;;;;7.44;100.00;100544.00;15232398;19;20274;-51
2022/01/29 11:08:59;;;;;;;18.23;8.13;;;;;;;7.51;100.00;100555.16;15218411;19;20199;-48
2022/01/29 11:14:04;;;;;;;16.50;8.47;;;;;;;7.61;100.00;100545.00;15230014;19;20154;-49
2022/01/29 11:19:09;;;;;;;17.70;8.07;;;;;;;7.46;100.00;100542.13;15254108;19;20157;-49
2022/01/29 11:24:14;;;;;;;17.17;8.60;;;;;;;7.44;100.00;100528.06;15274488;19;20165;-52
2022/01/29 11:29:25;;;;;;;18.70;8.53;;;;;;;7.27;100.00;100506.75;15260247;19;20161;-50
2022/01/29 11:34:30;;;;;;;18.13;8.80;;;;;;;7.19;100.00;100485.91;15247807;19;20726;-51
2022/01/29 11:39:36;;;;;;;19.27;7.47;;;;;;;7.22;100.00;100463.66;15268306;19;20153;-50
2022/01/29 11:55:04;;;;;;;18.33;8.03;;;;;;;6.94;100.00;100415.50;15315487;19;20544;-51
2022/01/29 12:00:36;;;;;;;18.57;8.30;;;;;;;7.05;100.00;100394.63;15336817;19;20600;-51
2022/01/29 12:06:11;;;;;;;18.13;8.00;;;;;;;7.09;100.00;100393.53;15346338;19;20179;-50
2022/01/29 12:11:18;;;;;;;17.10;8.03;;;;;;;7.16;100.00;100382.53;15345545;19;20147;-49
2022/01/29 12:16:47;;;;;;;14.97;7.63;;;;;;;7.10;100.00;100368.72;15322644;19;20145;-50
2022/01/29 12:21:52;;;;;;;14.63;8.60;;;;;;;6.72;100.00;100358.19;15335084;19;20633;-50
2022/01/29 12:26:57;;;;;;;14.50;7.93;;;;;;;6.39;100.00;100339.44;15345410;19;20134;-50
2022/01/29 12:37:14;;;;;;;17.63;8.13;;;;;;;6.22;100.00;100302.25;15180124;19;2878075;-50
2022/01/29 12:42:31;;;;;;;21.67;8.43;;;;;;;6.14;100.00;100292.03;15325954;19;20833;-51
2022/01/29 12:47:37;;;;;;;20.27;9.17;;;;;;;5.89;100.00;100269.38;15348110;19;20640;-51
2022/01/29 12:57:48;;;;;;;20.17;9.20;;;;;;;5.62;100.00;100250.28;15336708;19;20509;-50
2022/01/29 13:02:52;;;;;;;20.03;9.03;;;;;;;5.47;100.00;100221.84;15317921;19;20145;-50
2022/01/29 13:07:57;;;;;;;21.27;10.10;;;;;;;5.26;100.00;100215.72;15340341;19;20150;-49
2022/01/29 13:13:06;;;;;;;18.30;8.67;;;;;;;5.30;100.00;100201.44;15347277;19;20158;-51
2022/01/29 13:18:11;;;;;;;20.30;10.27;;;;;;;5.18;100.00;100192.25;15346747;19;20555;-50
2022/01/29 13:23:15;;;;;;;18.77;9.97;;;;;;;5.08;100.00;100170.63;15323469;19;20158;-50
2022/01/29 13:28:20;;;;;;;18.67;10.47;;;;;;;4.99;100.00;100154.31;15328864;19;20156;-50
2022/01/29 13:38:34;;;;;;;15.70;9.53;;;;;;;5.02;100.00;100127.75;15343614;19;20462;-50
2022/01/29 13:43:39;;;;;;;18.70;10.07;;;;;;;4.83;100.00;100111.81;15332580;19;21201;-50
2022/01/29 13:48:44;;;;;;;20.90;10.83;;;;;;;4.85;100.00;100093.25;15321161;19;20195;-50
2022/01/29 13:58:59;;;;;;;15.80;8.90;;;;;;;4.77;100.00;100076.88;15343679;19;20520;-49
2022/01/29 14:04:04;;;;;;;15.63;8.70;;;;;;;4.77;100.00;100043.38;15349016;19;20151;-50
2022/01/29 14:09:24;;;;;;;16.27;9.33;;;;;;;4.72;100.00;100029.50;15315777;19;21367;-52
2022/01/29 14:14:30;;;;;;;13.87;8.40;;;;;;;4.55;100.00;100043.47;15335010;19;20677;-50
2022/01/29 14:19:35;;;;;;;13.87;8.80;;;;;;;4.57;100.00;100017.00;15343938;19;20163;-50
2022/01/29 14:24:41;;;;;;;13.77;8.27;;;;;;;4.44;100.00;99998.19;15342080;19;20161;-50
2022/01/29 14:34:43;;;;;;;16.47;9.20;;;;;;;4.33;100.00;99968.75;15315791;19;21092;-51
2022/01/29 14:44:46;;;;;;;14.87;9.53;;;;;;;4.16;100.00;99929.00;15333664;19;20557;-51
2022/01/29 14:49:51;;;;;;;15.70;9.80;;;;;;;4.08;100.00;99912.66;15330634;19;20471;-50
2022/01/29 14:59:54;;;;;;;14.67;10.07;;;;;;;3.83;100.00;99871.50;15322054;19;20532;-50
2022/01/29 15:09:56;;;;;;;14.97;9.70;;;;;;;3.75;100.00;99843.72;15343588;19;20475;-51
2022/01/29 15:15:01;;;;;;;11.90;9.00;;;;;;;3.65;100.00;99840.63;15324821;19;20432;-49
2022/01/29 15:20:07;;;;;;;13.30;9.77;;;;;;;3.55;100.00;99816.44;15332475;19;20143;-50
2022/01/29 15:30:13;;;;;;;12.37;9.73;;;;;;;3.49;100.00;99800.03;15342703;19;21014;-51
2022/01/29 15:45:11;;;;;;;12.43;9.50;;;;;;;3.45;100.00;99787.91;15191627;19;2877289;-49
2022/01/29 15:50:22;;;;;;;12.03;8.93;;;;;;;3.47;100.00;99765.81;15347933;19;20133;-50
2022/01/29 15:55:27;;;;;;;13.40;10.20;;;;;;;3.35;100.00;99739.97;15350227;19;20156;-49
2022/01/29 16:00:38;;;;;;;13.80;11.50;;;;;;;3.21;100.00;99723.91;15317863;19;20623;-49
2022/01/29 16:05:42;;;;;;;14.20;11.00;;;;;;;3.32;100.00;99718.16;15335473;19;20489;-49
2022/01/29 16:10:47;;;;;;;12.77;11.20;;;;;;;3.25;100.00;99692.06;15346381;19;20474;-50
2022/01/29 16:15:53;;;;;;;13.10;11.77;;;;;;;3.19;100.00;99676.50;15345804;19;20610;-49
2022/01/29 16:20:57;;;;;;;14.60;12.40;;;;;;;3.28;100.00;99648.00;15329174;19;20580;-50
2022/01/29 16:26:02;;;;;;;14.87;12.83;;;;;;;3.25;100.00;99617.41;15324230;19;20151;-51
2022/01/29 16:31:07;;;;;;;14.17;11.60;;;;;;;3.26;100.00;99579.53;15350775;19;20611;-49
2022/01/29 16:36:12;;;;;;;15.47;12.37;;;;;;;3.31;100.00;99558.25;15348548;19;20176;-49
2022/01/29 16:41:17;;;;;;;13.90;11.20;;;;;;;3.36;100.00;99536.00;15343122;19;20203;-49
2022/01/29 16:46:22;;;;;;;13.10;11.00;;;;;;;3.32;100.00;99541.50;15321012;19;20801;-50
2022/01/29 16:56:21;;;;;;;11.37;10.17;;;;;;;3.41;100.00;99522.59;15197040;19;2913499;-51
2022/01/29 17:01:31;;;;;;;12.00;10.40;;;;;;;3.47;100.00;99507.34;15354053;19;20154;-51
2022/01/29 17:06:36;;;;;;;12.00;10.17;;;;;;;3.54;100.00;99470.97;15329188;19;20164;-51
2022/01/29 17:11:41;;;;;;;11.10;9.63;;;;;;;3.54;100.00;99463.06;15336035;19;20154;-50
2022/01/29 17:16:46;;;;;;;11.23;9.33;;;;;;;3.60;100.00;99441.66;15331648;19;20514;-51
2022/01/29 17:21:51;;;;;;;9.60;8.37;;;;;;;4.16;100.00;99420.28;15315868;19;20775;-52
2022/01/29 17:26:57;;;;;;;9.43;8.47;;;;;;;4.15;100.00;99415.06;15307843;19;20171;-52
2022/01/29 17:32:02;;;;;;;10.97;9.03;;;;;;;4.47;100.00;99406.28;15291813;19;20147;-52
2022/01/29 17:42:04;;;;;;;9.80;8.10;;;;;;;4.34;100.00;99395.56;15309740;19;20962;-53
2022/01/29 17:47:08;;;;;;;7.90;7.10;;;;;;;4.29;100.00;99379.09;15318076;19;20503;-53
2022/01/29 17:52:13;;;;;;;8.60;7.37;;;;;;;4.23;100.00;99353.00;15290543;19;20587;-52
2022/01/29 17:57:18;;;;;;;10.43;7.90;;;;;;;4.18;100.00;99339.22;15302307;19;20170;-53
2022/01/29 18:02:22;;;;;;;10.10;8.97;;;;;;;4.24;100.00;99324.81;15307133;19;20238;-53
2022/01/29 18:07:27;;;;;;;9.00;7.47;;;;;;;4.21;100.00;99327.63;15311393;19;20162;-53
2022/01/29 18:17:29;;;;;;;12.77;9.17;;;;;;;4.25;100.00;99292.19;15281302;19;21238;-52
2022/01/29 18:22:33;;;;;;;11.17;8.70;;;;;;;4.28;100.00;99268.25;15308699;19;20160;-54
2022/01/29 18:27:44;;;;;;;9.87;8.17;;;;;;;4.38;100.00;99264.16;15310538;19;20171;-52
2022/01/29 18:32:49;;;;;;;9.00;8.07;;;;;;;4.43;100.00;99229.59;15306941;19;20924;-53
2022/01/29 18:37:55;;;;;;;9.97;8.43;;;;;;;4.45;100.00;99223.28;15281005;19;20676;-53
2022/01/29 18:43:00;;;;;;;10.30;8.60;;;;;;;4.57;100.00;99233.16;15298079;19;20151;-53
2022/01/29 18:48:05;;;;;;;9.63;8.43;;;;;;;4.59;100.00;99206.63;15304279;19;20848;-52
2022/01/29 18:53:11;;;;;;;9.17;8.00;;;;;;;4.63;100.00;99179.94;15304909;19;20154;-53
2022/01/29 18:58:15;;;;;;;10.23;8.73;;;;;;;4.60;100.00;99164.25;15289942;19;20144;-52
2022/01/29 19:03:20;;;;;;;10.10;9.00;;;;;;;4.69;100.00;99132.03;15288105;19;20154;-52
2022/01/29 19:08:25;;;;;;;10.40;9.17;;;;;;;4.75;100.00;99128.16;15314052;19;20164;-52
2022/01/29 19:13:32;;;;;;;11.73;9.93;;;;;;;4.90;100.00;99129.91;15337240;19;20215;-52
2022/01/29 19:18:37;;;;;;;12.00;10.77;;;;;;;4.93;100.00;99098.00;15332201;19;20136;-53
2022/01/29 19:23:46;;;;;;;12.67;10.97;;;;;;;5.07;100.00;99073.38;15309120;19;20147;-52
2022/01/29 19:28:50;;;;;;;12.30;11.10;;;;;;;5.15;100.00;99060.53;15276798;19;20220;-52
2022/01/29 19:33:55;;;;;;;12.70;10.90;;;;;;;5.33;100.00;99059.34;15279577;19;20160;-52
2022/01/29 19:38:59;;;;;;;12.87;10.43;;;;;;;5.34;100.00;99044.34;15278648;19;20161;-52
2022/01/29 19:44:05;;;;;;;10.97;9.83;;;;;;;5.46;100.00;99034.75;15255076;19;20152;-52
2022/01/29 19:49:09;;;;;;;12.20;10.57;;;;;;;5.49;100.00;99024.84;15259695;19;20173;-51
2022/01/29 19:54:14;;;;;;;11.87;10.67;;;;;;;5.57;100.00;99013.75;15273135;19;20161;-52
2022/01/29 19:59:19;;;;;;;11.70;10.27;;;;;;;5.60;100.00;98981.81;15277155;19;20137;-52
2022/01/29 20:04:23;;;;;;;11.80;10.60;;;;;;;5.68;100.00;98958.34;15258138;19;20219;-51
2022/01/29 20:09:28;;;;;;;12.13;10.93;;;;;;;5.76;100.00;98956.06;15247985;19;20149;-52
2022/01/29 20:14:34;;;;;;;11.97;10.87;;;;;;;5.75;100.00;98938.47;15272492;19;20167;-52
2022/01/29 20:19:41;;;;;;;12.80;11.53;;;;;;;5.67;100.00;98915.19;15277808;19;20209;-53
2022/01/29 20:24:46;;;;;;;13.50;11.40;;;;;;;5.83;100.00;98893.81;15279407;19;20145;-51
2022/01/29 20:29:51;;;;;;;11.57;10.30;;;;;;;5.89;100.00;98893.44;15247918;19;20935;-52
2022/01/29 20:34:56;;;;;;;11.33;10.23;;;;;;;5.90;100.00;98889.84;15265481;19;20161;-51
2022/01/29 20:40:05;;;;;;;10.90;9.83;;;;;;;5.93;100.00;98868.44;15275954;19;20137;-54
2022/01/29 20:45:12;;;;;;;11.20;10.00;;;;;;;5.96;100.00;98857.63;15278553;19;20925;-52
2022/01/29 20:50:17;;;;;;;11.73;9.50;;;;;;;5.97;100.00;98832.00;15257399;19;20769;-51
2022/01/29 20:55:23;;;;;;;11.17;9.67;;;;;;;5.96;100.00;98809.97;15252971;19;20292;-53
2022/01/29 21:00:34;;;;;;;10.27;8.97;;;;;;;5.96;100.00;98812.63;15244737;19;20159;-53
2022/01/29 21:05:39;;;;;;;10.63;9.37;;;;;;;6.00;100.00;98802.69;15244685;19;20221;-52
2022/01/29 21:10:44;;;;;;;10.47;9.37;;;;;;;5.96;100.00;98799.38;15235560;19;20603;-53
2022/01/29 21:15:48;;;;;;;10.10;9.10;;;;;;;6.01;100.00;98775.25;15214968;19;20157;-52
2022/01/29 21:20:55;;;;;;;10.60;9.50;;;;;;;6.05;100.00;98766.97;15237747;19;20227;-53
2022/01/29 21:26:01;;;;;;;9.27;8.30;;;;;;;6.06;100.00;98747.47;15248469;19;20266;-52
2022/01/29 21:31:05;;;;;;;8.73;7.93;;;;;;;6.07;100.00;98720.06;15237632;19;20205;-53
2022/01/29 21:36:11;;;;;;;10.63;8.27;;;;;;;6.19;100.00;98693.66;15211356;19;20586;-52
2022/01/29 21:41:16;;;;;;;8.77;7.63;;;;;;;6.16;100.00;98657.63;15222819;19;20592;-52
2022/01/29 21:46:20;;;;;;;8.27;7.47;;;;;;;6.17;100.00;98677.88;15244072;19;20153;-53
2022/01/29 21:51:25;;;;;;;8.60;7.70;;;;;;;6.30;100.00;98676.00;15240738;19;20153;-53
2022/01/29 21:56:29;;;;;;;7.37;6.70;;;;;;;6.39;100.00;98632.13;15229847;19;20149;-52
2022/01/29 22:01:34;;;;;;;8.07;7.27;;;;;;;6.42;100.00;98640.69;15214532;19;20137;-53
2022/01/29 22:06:40;;;;;;;8.43;7.30;;;;;;;6.47;100.00;98619.16;15241424;19;20907;-52
2022/01/29 22:11:44;;;;;;;7.20;6.60;;;;;;;6.51;100.00;98604.72;15238824;19;20156;-53
2022/01/29 22:16:49;;;;;;;8.60;7.33;;;;;;;6.62;100.00;98607.41;15240142;19;20173;-53
2022/01/29 22:21:54;;;;;;;8.20;7.40;;;;;;;6.68;100.00;98542.47;15211157;19;20631;-53
2022/01/29 22:26:59;;;;;;;8.13;7.33;;;;;;;6.84;100.00;98553.59;15231382;19;20161;-55
2022/01/29 22:32:04;;;;;;;8.60;7.80;;;;;;;6.99;100.00;98535.66;15238533;19;20149;-53
2022/01/29 22:37:08;;;;;;;8.10;7.40;;;;;;;7.02;100.00;98535.41;15239597;19;20153;-52
2022/01/29 22:42:13;;;;;;;7.93;7.17;;;;;;;7.28;100.00;98509.47;15221162;19;20253;-53
2022/01/29 22:47:18;;;;;;;7.53;6.90;;;;;;;7.36;100.00;98480.53;15215425;19;20171;-53
2022/01/29 22:52:22;;;;;;;7.37;6.67;;;;;;;7.46;100.00;98466.41;15236426;19;20551;-55
2022/01/29 22:57:27;;;;;;;6.43;5.83;;;;;;;7.45;100.00;98416.13;15235774;19;20145;-52
2022/01/29 23:02:31;;;;;;;6.70;5.97;;;;;;;7.59;100.00;98467.09;15245152;19;20698;-52
2022/01/29 23:07:42;;;;;;;7.27;6.67;;;;;;;7.76;100.00;98456.88;15226912;19;20150;-53
2022/01/29 23:12:56;;;;;;;7.30;6.60;;;;;;;7.75;100.00;98460.50;15244150;19;20185;-53
2022/01/29 23:18:00;;;;;;;6.77;6.17;;;;;;;7.73;100.00;98404.06;15249696;19;20967;-52
2022/01/29 23:23:13;;;;;;;6.80;6.20;;;;;;;7.73;100.00;98427.97;15250894;19;20154;-53
2022/01/29 23:28:33;;;;;;;6.03;5.50;;;;;;;7.91;100.00;98423.78;15227886;19;20611;-55
2022/01/29 23:39:09;;;;;;;5.57;5.00;;;;;;;8.03;100.00;98396.19;15248194;19;20554;-52
2022/01/29 23:44:19;;;;;;;4.13;3.77;;;;;;;8.05;100.00;98388.09;15284280;19;20152;-53
2022/01/29 23:49:27;;;;;;;3.87;3.57;;;;;;;8.01;100.00;98371.56;15269889;19;20634;-53
2022/01/29 23:54:31;;;;;;;3.43;3.13;;;;;;;8.04;100.00;98347.41;15257035;19;20150;-53
2022/01/29 23:59:36;;;;;;;4.00;2.93;;;;;;;8.04;100.00;98343.91;15279970;19;20549;-53
